Thunder radar more information blitzortung!


Radar de pluja more information rain snow radar


Visita la nostra xarxa de llocs de meteo:

Template documentation
and downloads

And another site



Wind From: 11-12-2017 11:00 Until: 14:59 warning for: Wind Level: Yellow info button

Pagina Historial Weather Underground text

Diari Resum Juny 25, 2017 Unitats:  Tant    Imperial   Mètric
« Previous Dia
SegĂźent Dia »
Diari Setmana Mensual Anual Personalitzada
  Maxima: Minima: Media:
Temperatura: 87.6 °F /  30.9 °C 70.2 °F /  21.2 °C 78.8 °F /  26 °C
Punt de rosada: 69.4 °F /  20.8 °C 62.6 °F /  17.0 °C 66 °F /  18.9 °C
Humitat: 86 % 50 % 66 %
Wind Speed: 10.4 mph /  16.7 km/h - 3.3 mph /  5.3 km/h
RĂ fegues de vent: 10.4 mph /  16.7 km/h - -
Vent:- - South
Pression baro: 30.1 in /  1017.8 hPa 29.8 in /  1010.7 hPa -
Precipitacions: 0 in /  0.0 mm    
Historical Graphs
 
 
Dades de taula per Juny 25, 2017
Temps Temperatura Punt de rosada Pression baro Vent Wind Speed RĂ fegues de vent Humitat Rainfall Rate (Hourly)
00:02 73.9 °F /  23.3 °C 63.9 °F /  17.7 °C 29.9 in /  1013.8 hPa SW 2.3 mph /  3.7 km/h 2.3 mph /  3.7 km/h 71 % 0 in /  0.0 mm
00:07 73.9 °F /  23.3 °C 63.9 °F /  17.7 °C 29.9 in /  1013.8 hPa WSW 2.3 mph /  3.7 km/h 2.3 mph /  3.7 km/h 71 % 0 in /  0.0 mm
05:20 73.6 °F /  23.1 °C 67.5 °F /  19.7 °C 30 in /  1015.8 hPa ESE 3 mph /  4.8 km/h 6 mph /  9.7 km/h 81 % 0 in /  0.0 mm
05:30 73.8 °F /  23.2 °C 67.6 °F /  19.8 °C 30 in /  1015.8 hPa ESE 3 mph /  4.8 km/h 4 mph /  6.4 km/h 81 % 0 in /  0.0 mm
05:40 73.8 °F /  23.2 °C 67.6 °F /  19.8 °C 30 in /  1015.8 hPa East 2 mph /  3.2 km/h 5 mph /  8.0 km/h 81 % 0 in /  0.0 mm
05:50 73.8 °F /  23.2 °C 67.6 °F /  19.8 °C 30 in /  1015.8 hPa East 6 mph /  9.7 km/h 6 mph /  9.7 km/h 81 % 0 in /  0.0 mm
06:00 74.1 °F /  23.4 °C 67.6 °F /  19.8 °C 30 in /  1015.8 hPa East 5 mph /  8.0 km/h 6 mph /  9.7 km/h 80 % 0 in /  0.0 mm
06:10 74.3 °F /  23.5 °C 67.6 °F /  19.8 °C 30 in /  1015.8 hPa East 1 mph /  1.6 km/h 4 mph /  6.4 km/h 80 % 0 in /  0.0 mm
06:20 74.5 °F /  23.6 °C 67.8 °F /  19.9 °C 30 in /  1015.8 hPa ESE 3 mph /  4.8 km/h 5 mph /  8.0 km/h 80 % 0 in /  0.0 mm
06:30 75.2 °F /  24.0 °C 67.8 °F /  19.9 °C 30 in /  1016.8 hPa SE 1 mph /  1.6 km/h 2 mph /  3.2 km/h 78 % 0 in /  0.0 mm
06:40 75.2 °F /  24.0 °C 67.8 °F /  19.9 °C 30 in /  1015.8 hPa ESE 2 mph /  3.2 km/h 5 mph /  8.0 km/h 78 % 0 in /  0.0 mm
11:47 75.9 °F /  24.4 °C 68.5 °F /  20.3 °C 30 in /  1015.8 hPa SSW 1.2 mph /  1.9 km/h   78 % 0 in /  0.0 mm
11:52 75.9 °F /  24.4 °C 68.2 °F /  20.1 °C 30 in /  1016.8 hPa ESE 3.5 mph /  5.6 km/h 3.5 mph /  5.6 km/h 77 % 0 in /  0.0 mm
11:57 76.1 °F /  24.5 °C 68.4 °F /  20.2 °C 30 in /  1016.8 hPa ESE 2.9 mph /  4.7 km/h   77 % 0 in /  0.0 mm
12:02 75.9 °F /  24.4 °C 68.2 °F /  20.1 °C 30.1 in /  1017.8 hPa East 3.5 mph /  5.6 km/h 3.5 mph /  5.6 km/h 77 % 0 in /  0.0 mm
12:07 75.9 °F /  24.4 °C 68.2 °F /  20.1 °C 30.1 in /  1017.8 hPa East 4.9 mph /  7.9 km/h 4.9 mph /  7.9 km/h 77 % 0 in /  0.0 mm
12:12 76.1 °F /  24.5 °C 68 °F /  20.0 °C 30.1 in /  1017.8 hPa South 4.6 mph /  7.4 km/h 4.6 mph /  7.4 km/h 76 % 0 in /  0.0 mm
12:17 76.5 °F /  24.7 °C 68.4 °F /  20.2 °C 30.1 in /  1017.8 hPa ESE 5.9 mph /  9.5 km/h 5.9 mph /  9.5 km/h 76 % 0 in /  0.0 mm
12:22 76.8 °F /  24.9 °C 68.4 °F /  20.2 °C 30.1 in /  1017.8 hPa SE 3.5 mph /  5.6 km/h 3.5 mph /  5.6 km/h 75 % 0 in /  0.0 mm
12:27 76.6 °F /  24.8 °C 68.2 °F /  20.1 °C 30.1 in /  1017.8 hPa ESE 3.5 mph /  5.6 km/h 3.5 mph /  5.6 km/h 75 % 0 in /  0.0 mm
12:32 77 °F /  25.0 °C 68.2 °F /  20.1 °C 30 in /  1016.8 hPa NE 2.3 mph /  3.7 km/h 2.3 mph /  3.7 km/h 74 % 0 in /  0.0 mm
12:37 77.2 °F /  25.1 °C 67.8 °F /  19.9 °C 30 in /  1016.8 hPa ESE 5.8 mph /  9.3 km/h 5.8 mph /  9.3 km/h 73 % 0 in /  0.0 mm
12:42 77.5 °F /  25.3 °C 68.2 °F /  20.1 °C 30 in /  1016.8 hPa ENE 6.9 mph /  11.1 km/h 6.9 mph /  11.1 km/h 73 % 0 in /  0.0 mm
12:47 78.3 °F /  25.7 °C 68.5 °F /  20.3 °C 30 in /  1015.8 hPa South 3.5 mph /  5.6 km/h 3.5 mph /  5.6 km/h 72 % 0 in /  0.0 mm
12:52 77.9 °F /  25.5 °C 67.6 °F /  19.8 °C 30 in /  1015.8 hPa NE 4.6 mph /  7.4 km/h 4.6 mph /  7.4 km/h 71 % 0 in /  0.0 mm
12:57 77.5 °F /  25.3 °C 67.5 °F /  19.7 °C 30 in /  1015.8 hPa NW 3.5 mph /  5.6 km/h 3.5 mph /  5.6 km/h 71 % 0 in /  0.0 mm
13:02 77.7 °F /  25.4 °C 67.6 °F /  19.8 °C 30 in /  1016.8 hPa South 3.5 mph /  5.6 km/h 3.5 mph /  5.6 km/h 71 % 0 in /  0.0 mm
13:07 78.1 °F /  25.6 °C 67.8 °F /  19.9 °C 30 in /  1016.8 hPa SSE 2 mph /  3.2 km/h   71 % 0 in /  0.0 mm
13:12 79.2 °F /  26.2 °C 68.9 °F /  20.5 °C 30 in /  1016.8 hPa South 2.3 mph /  3.7 km/h 2.3 mph /  3.7 km/h 71 % 0 in /  0.0 mm
13:17 80.1 °F /  26.7 °C 69.4 °F /  20.8 °C 30 in /  1016.8 hPa SW 2.4 mph /  3.9 km/h 2.4 mph /  3.9 km/h 70 % 0 in /  0.0 mm
13:22 80.2 °F /  26.8 °C 69.1 °F /  20.6 °C 30 in /  1016.8 hPa SW 3.5 mph /  5.6 km/h 3.5 mph /  5.6 km/h 69 % 0 in /  0.0 mm
13:27 80.1 °F /  26.7 °C 68.5 °F /  20.3 °C 30 in /  1016.8 hPa SW 4.6 mph /  7.4 km/h 4.6 mph /  7.4 km/h 68 % 0 in /  0.0 mm
13:32 80.6 °F /  27.0 °C 68.5 °F /  20.3 °C 30 in /  1016.8 hPa SW 3.8 mph /  6.1 km/h 3.8 mph /  6.1 km/h 67 % 0 in /  0.0 mm
13:37 80.6 °F /  27.0 °C 68.2 °F /  20.1 °C 30 in /  1016.8 hPa West 5.8 mph /  9.3 km/h 5.8 mph /  9.3 km/h 66 % 0 in /  0.0 mm
13:42 80.2 °F /  26.8 °C 67.8 °F /  19.9 °C 30 in /  1016.8 hPa East 2.6 mph /  4.2 km/h 2.6 mph /  4.2 km/h 66 % 0 in /  0.0 mm
13:47 79.7 °F /  26.5 °C 67.3 °F /  19.6 °C 30 in /  1016.8 hPa East 4.6 mph /  7.4 km/h 4.6 mph /  7.4 km/h 66 % 0 in /  0.0 mm
13:52 80.4 °F /  26.9 °C 68 °F /  20.0 °C 30 in /  1016.8 hPa ESE 3.5 mph /  5.6 km/h 3.5 mph /  5.6 km/h 66 % 0 in /  0.0 mm
13:57 81.7 °F /  27.6 °C 68.7 °F /  20.4 °C 30 in /  1016.8 hPa South 2.3 mph /  3.7 km/h 2.3 mph /  3.7 km/h 65 % 0 in /  0.0 mm
14:02 81.9 °F /  27.7 °C 68.5 °F /  20.3 °C 30 in /  1015.8 hPa WSW 3.8 mph /  6.1 km/h 3.8 mph /  6.1 km/h 64 % 0 in /  0.0 mm
14:07 82.2 °F /  27.9 °C 68.7 °F /  20.4 °C 30 in /  1015.8 hPa WSW 1.2 mph /  1.9 km/h 1.2 mph /  1.9 km/h 64 % 0 in /  0.0 mm
14:12 82.2 °F /  27.9 °C 67.8 °F /  19.9 °C 30 in /  1015.8 hPa South 4.6 mph /  7.4 km/h 4.6 mph /  7.4 km/h 62 % 0 in /  0.0 mm
14:17 83.1 °F /  28.4 °C 69.3 °F /  20.7 °C 30 in /  1015.8 hPa SW 3.5 mph /  5.6 km/h 3.5 mph /  5.6 km/h 63 % 0 in /  0.0 mm
14:22 83.3 °F /  28.5 °C 68.9 °F /  20.5 °C 30 in /  1015.8 hPa SSE 6.9 mph /  11.1 km/h 6.9 mph /  11.1 km/h 62 % 0 in /  0.0 mm
14:27 82.9 °F /  28.3 °C 68.5 °F /  20.3 °C 30 in /  1015.8 hPa SW 2.3 mph /  3.7 km/h 2.3 mph /  3.7 km/h 62 % 0 in /  0.0 mm
14:32 82.8 °F /  28.2 °C 68.4 °F /  20.2 °C 30 in /  1015.8 hPa South 4.6 mph /  7.4 km/h 4.6 mph /  7.4 km/h 62 % 0 in /  0.0 mm
14:37 82.9 °F /  28.3 °C 68.5 °F /  20.3 °C 30 in /  1015.8 hPa SSE 3.5 mph /  5.6 km/h 3.5 mph /  5.6 km/h 62 % 0 in /  0.0 mm
14:42 82.9 °F /  28.3 °C 68.2 °F /  20.1 °C 30 in /  1015.8 hPa SW 5.8 mph /  9.3 km/h 5.8 mph /  9.3 km/h 61 % 0 in /  0.0 mm
14:47 83.5 °F /  28.6 °C 68.5 °F /  20.3 °C 30 in /  1015.8 hPa SW 4.6 mph /  7.4 km/h 4.6 mph /  7.4 km/h 61 % 0 in /  0.0 mm
14:52 84.4 °F /  29.1 °C 68.5 °F /  20.3 °C 30 in /  1015.8 hPa WSW 3.5 mph /  5.6 km/h 3.5 mph /  5.6 km/h 59 % 0 in /  0.0 mm
14:57 85.1 °F /  29.5 °C 69.3 °F /  20.7 °C 30 in /  1015.8 hPa SW 2.9 mph /  4.7 km/h 2.9 mph /  4.7 km/h 59 % 0 in /  0.0 mm
15:02 84.2 °F /  29.0 °C 67.8 °F /  19.9 °C 30 in /  1014.8 hPa SW 4.6 mph /  7.4 km/h 4.6 mph /  7.4 km/h 58 % 0 in /  0.0 mm
15:07 85.1 °F /  29.5 °C 68.7 °F /  20.4 °C 30 in /  1014.8 hPa SSW 4.6 mph /  7.4 km/h 4.6 mph /  7.4 km/h 58 % 0 in /  0.0 mm
15:12 84.7 °F /  29.3 °C 67.3 °F /  19.6 °C 30 in /  1014.8 hPa South 2.3 mph /  3.7 km/h 2.4 mph /  3.9 km/h 56 % 0 in /  0.0 mm
15:17 84.7 °F /  29.3 °C 67.8 °F /  19.9 °C 30 in /  1014.8 hPa SSW 2.3 mph /  3.7 km/h 2.3 mph /  3.7 km/h 57 % 0 in /  0.0 mm
15:22 85.1 °F /  29.5 °C 68.2 °F /  20.1 °C 30 in /  1014.8 hPa South 3.5 mph /  5.6 km/h 3.5 mph /  5.6 km/h 57 % 0 in /  0.0 mm
15:27 85.1 °F /  29.5 °C 68.2 °F /  20.1 °C 30 in /  1014.8 hPa SW 5.8 mph /  9.3 km/h 5.8 mph /  9.3 km/h 57 % 0 in /  0.0 mm
15:32 84.2 °F /  29.0 °C 67.3 °F /  19.6 °C 30 in /  1014.8 hPa SSW 2.3 mph /  3.7 km/h 2.4 mph /  3.9 km/h 57 % 0 in /  0.0 mm
15:37 84.7 °F /  29.3 °C 67.8 °F /  19.9 °C 30 in /  1014.8 hPa SW 6.9 mph /  11.1 km/h 6.9 mph /  11.1 km/h 57 % 0 in /  0.0 mm
15:42 84.9 °F /  29.4 °C 68 °F /  20.0 °C 30 in /  1014.8 hPa WSW 10.4 mph /  16.7 km/h 10.4 mph /  16.7 km/h 57 % 0 in /  0.0 mm
15:47 85.1 °F /  29.5 °C 68.2 °F /  20.1 °C 30 in /  1014.8 hPa SW 3.5 mph /  5.6 km/h 3.5 mph /  5.6 km/h 57 % 0 in /  0.0 mm
15:52 85.3 °F /  29.6 °C 67.8 °F /  19.9 °C 30 in /  1014.8 hPa West 8.1 mph /  13.0 km/h 8.1 mph /  13.0 km/h 56 % 0 in /  0.0 mm
15:57 86 °F /  30.0 °C 68 °F /  20.0 °C 30 in /  1014.8 hPa WSW 8.1 mph /  13.0 km/h 8.1 mph /  13.0 km/h 55 % 0 in /  0.0 mm
16:02 86.2 °F /  30.1 °C 68.2 °F /  20.1 °C 30 in /  1014.8 hPa South 4.6 mph /  7.4 km/h 4.6 mph /  7.4 km/h 55 % 0 in /  0.0 mm
16:07 85.8 °F /  29.9 °C 67.8 °F /  19.9 °C 30 in /  1014.8 hPa SSW 9.2 mph /  14.8 km/h 9.2 mph /  14.8 km/h 55 % 0 in /  0.0 mm
16:12 85.1 °F /  29.5 °C 67.1 °F /  19.5 °C 29.9 in /  1013.8 hPa SSE 3.5 mph /  5.6 km/h 3.5 mph /  5.6 km/h 55 % 0 in /  0.0 mm
16:17 84.9 °F /  29.4 °C 66.9 °F /  19.4 °C 29.9 in /  1013.8 hPa SW 3.5 mph /  5.6 km/h 3.5 mph /  5.6 km/h 55 % 0 in /  0.0 mm
16:22 84 °F /  28.9 °C 66.6 °F /  19.2 °C 29.9 in /  1013.8 hPa WSW 4.6 mph /  7.4 km/h 4.6 mph /  7.4 km/h 56 % 0 in /  0.0 mm
16:27 84.2 °F /  29.0 °C 66.4 °F /  19.1 °C 29.9 in /  1013.8 hPa WSW 2.9 mph /  4.7 km/h 2.9 mph /  4.7 km/h 55 % 0 in /  0.0 mm
16:32 84.2 °F /  29.0 °C 66.7 °F /  19.3 °C 29.9 in /  1013.8 hPa SSW 2.3 mph /  3.7 km/h 2.3 mph /  3.7 km/h 56 % 0 in /  0.0 mm
16:37 84.2 °F /  29.0 °C 66.4 °F /  19.1 °C 29.9 in /  1013.8 hPa SW 3.6 mph /  5.8 km/h 3.6 mph /  5.8 km/h 55 % 0 in /  0.0 mm
16:42 84.7 °F /  29.3 °C 66.7 °F /  19.3 °C 29.9 in /  1013.8 hPa SSW 3.5 mph /  5.6 km/h 3.5 mph /  5.6 km/h 55 % 0 in /  0.0 mm
16:47 85.5 °F /  29.7 °C 67.5 °F /  19.7 °C 29.9 in /  1013.8 hPa SW 3.8 mph /  6.1 km/h 3.8 mph /  6.1 km/h 55 % 0 in /  0.0 mm
16:52 86.4 °F /  30.2 °C 67.8 °F /  19.9 °C 29.9 in /  1013.8 hPa West 2.4 mph /  3.9 km/h 2.4 mph /  3.9 km/h 54 % 0 in /  0.0 mm
16:57 86.9 °F /  30.5 °C 68.4 °F /  20.2 °C 29.9 in /  1013.8 hPa South 5.8 mph /  9.3 km/h 5.8 mph /  9.3 km/h 54 % 0 in /  0.0 mm
17:02 87.3 °F /  30.7 °C 68 °F /  20.0 °C 29.9 in /  1013.8 hPa SW 3.6 mph /  5.8 km/h 3.6 mph /  5.8 km/h 53 % 0 in /  0.0 mm
17:07 87.6 °F /  30.9 °C 68.4 °F /  20.2 °C 29.9 in /  1013.8 hPa SW 4.6 mph /  7.4 km/h 4.6 mph /  7.4 km/h 53 % 0 in /  0.0 mm
17:12 87.3 °F /  30.7 °C 67.5 °F /  19.7 °C 29.9 in /  1013.8 hPa SW 5.8 mph /  9.3 km/h 5.8 mph /  9.3 km/h 52 % 0 in /  0.0 mm
17:17 87.3 °F /  30.7 °C 66.9 °F /  19.4 °C 29.9 in /  1013.8 hPa SW 2.3 mph /  3.7 km/h 2.3 mph /  3.7 km/h 51 % 0 in /  0.0 mm
17:22 86.7 °F /  30.4 °C 66.4 °F /  19.1 °C 29.9 in /  1013.8 hPa SW 3.5 mph /  5.6 km/h 3.5 mph /  5.6 km/h 51 % 0 in /  0.0 mm
17:27 86 °F /  30.0 °C 65.8 °F /  18.8 °C 29.9 in /  1012.8 hPa SW 2.3 mph /  3.7 km/h 2.3 mph /  3.7 km/h 51 % 0 in /  0.0 mm
17:32 85.8 °F /  29.9 °C 65.7 °F /  18.7 °C 29.9 in /  1012.8 hPa SSW 4.3 mph /  6.9 km/h 4.3 mph /  6.9 km/h 51 % 0 in /  0.0 mm
17:37 85.5 °F /  29.7 °C 64.8 °F /  18.2 °C 29.9 in /  1012.8 hPa West 4.6 mph /  7.4 km/h 4.6 mph /  7.4 km/h 50 % 0 in /  0.0 mm
17:38 85.5 °F /  29.7 °C 64.8 °F /  18.2 °C 29.9 in /  1012.8 hPa SE 4.6 mph /  7.4 km/h 4.6 mph /  7.4 km/h 50 % 0 in /  0.0 mm
17:43 84.7 °F /  29.3 °C 64.6 °F /  18.1 °C 29.9 in /  1012.8 hPa ESE 4.7 mph /  7.6 km/h 4.7 mph /  7.6 km/h 51 % 0 in /  0.0 mm
17:48 84.7 °F /  29.3 °C 64.6 °F /  18.1 °C 29.9 in /  1012.8 hPa SW 2 mph /  3.2 km/h 2 mph /  3.2 km/h 51 % 0 in /  0.0 mm
17:53 84.9 °F /  29.4 °C 64.8 °F /  18.2 °C 29.9 in /  1012.8 hPa SW 8.1 mph /  13.0 km/h 8.1 mph /  13.0 km/h 51 % 0 in /  0.0 mm
17:54 84.7 °F /  29.3 °C 64 °F /  17.8 °C 29.9 in /  1012.8 hPa WSW 8.1 mph /  13.0 km/h 8.1 mph /  13.0 km/h 50 % 0 in /  0.0 mm
17:59 84.9 °F /  29.4 °C 64.8 °F /  18.2 °C 29.9 in /  1011.7 hPa SW 4.6 mph /  7.4 km/h 4.6 mph /  7.4 km/h 51 % 0 in /  0.0 mm
18:04 85.3 °F /  29.6 °C 65.1 °F /  18.4 °C 29.9 in /  1011.7 hPa SSW 8.1 mph /  13.0 km/h 8.1 mph /  13.0 km/h 51 % 0 in /  0.0 mm
18:09 84.7 °F /  29.3 °C 64.6 °F /  18.1 °C 29.9 in /  1011.7 hPa SSW 6.9 mph /  11.1 km/h 6.9 mph /  11.1 km/h 51 % 0 in /  0.0 mm
18:14 84.4 °F /  29.1 °C 63.7 °F /  17.6 °C 29.9 in /  1012.8 hPa West 5.8 mph /  9.3 km/h 5.8 mph /  9.3 km/h 50 % 0 in /  0.0 mm
18:19 84.6 °F /  29.2 °C 63.9 °F /  17.7 °C 29.9 in /  1012.8 hPa WSW 3.8 mph /  6.1 km/h 3.8 mph /  6.1 km/h 50 % 0 in /  0.0 mm
18:24 84.7 °F /  29.3 °C 64 °F /  17.8 °C 29.9 in /  1012.8 hPa SW 4.6 mph /  7.4 km/h 4.6 mph /  7.4 km/h 50 % 0 in /  0.0 mm
18:29 84.6 °F /  29.2 °C 63.9 °F /  17.7 °C 29.9 in /  1011.7 hPa WSW 4.6 mph /  7.4 km/h 4.6 mph /  7.4 km/h 50 % 0 in /  0.0 mm
18:34 84.4 °F /  29.1 °C 63.7 °F /  17.6 °C 29.9 in /  1011.7 hPa West 4.6 mph /  7.4 km/h 4.6 mph /  7.4 km/h 50 % 0 in /  0.0 mm
18:39 84 °F /  28.9 °C 63.9 °F /  17.7 °C 29.9 in /  1011.7 hPa West 3.8 mph /  6.1 km/h 3.8 mph /  6.1 km/h 51 % 0 in /  0.0 mm
18:44 83.8 °F /  28.8 °C 63.1 °F /  17.3 °C 29.9 in /  1011.7 hPa WSW 2.3 mph /  3.7 km/h   50 % 0 in /  0.0 mm
18:49 83.8 °F /  28.8 °C 63.1 °F /  17.3 °C 29.9 in /  1011.7 hPa WSW 3.5 mph /  5.6 km/h 3.5 mph /  5.6 km/h 50 % 0 in /  0.0 mm
18:54 83.5 °F /  28.6 °C 63 °F /  17.2 °C 29.9 in /  1011.7 hPa SW 3.5 mph /  5.6 km/h 3.5 mph /  5.6 km/h 50 % 0 in /  0.0 mm
18:59 83.3 °F /  28.5 °C 63.3 °F /  17.4 °C 29.9 in /  1011.7 hPa SW 2.4 mph /  3.9 km/h 2.4 mph /  3.9 km/h 51 % 0 in /  0.0 mm
19:04 83.3 °F /  28.5 °C 63.3 °F /  17.4 °C 29.9 in /  1011.7 hPa WSW 4.9 mph /  7.9 km/h 4.9 mph /  7.9 km/h 51 % 0 in /  0.0 mm
19:09 82.9 °F /  28.3 °C 63 °F /  17.2 °C 29.9 in /  1011.7 hPa SW 5.8 mph /  9.3 km/h 5.8 mph /  9.3 km/h 51 % 0 in /  0.0 mm
19:10 73.8 °F /  23.2 °C 66 °F /  18.9 °C 29.9 in /  1012.8 hPa ENE 2 mph /  3.2 km/h 3 mph /  4.8 km/h 77 % 0 in /  0.0 mm
19:14 82.8 °F /  28.2 °C 63.3 °F /  17.4 °C 29.8 in /  1010.7 hPa SSW 3.5 mph /  5.6 km/h 3.5 mph /  5.6 km/h 52 % 0 in /  0.0 mm
19:19 82.2 °F /  27.9 °C 62.8 °F /  17.1 °C 29.8 in /  1010.7 hPa SW 4.6 mph /  7.4 km/h 4.6 mph /  7.4 km/h 52 % 0 in /  0.0 mm
19:20 73.4 °F /  23.0 °C 65.5 °F /  18.6 °C 29.9 in /  1012.8 hPa ESE 2 mph /  3.2 km/h 2 mph /  3.2 km/h 76 % 0 in /  0.0 mm
19:24 82 °F /  27.8 °C 63.1 °F /  17.3 °C 29.8 in /  1010.7 hPa SW 4 mph /  6.4 km/h 4 mph /  6.4 km/h 53 % 0 in /  0.0 mm
19:29 81.5 °F /  27.5 °C 62.8 °F /  17.1 °C 29.9 in /  1011.7 hPa SSW 4.6 mph /  7.4 km/h 4.6 mph /  7.4 km/h 53 % 0 in /  0.0 mm
19:30 73 °F /  22.8 °C 65.5 °F /  18.6 °C 29.9 in /  1013.8 hPa SSW 1 mph /  1.6 km/h 2 mph /  3.2 km/h 77 % 0 in /  0.0 mm
19:34 81.3 °F /  27.4 °C 63.1 °F /  17.3 °C 29.9 in /  1011.7 hPa WSW 2.4 mph /  3.9 km/h   54 % 0 in /  0.0 mm
19:39 81.1 °F /  27.3 °C 63 °F /  17.2 °C 29.9 in /  1011.7 hPa SSW 5.8 mph /  9.3 km/h 5.8 mph /  9.3 km/h 54 % 0 in /  0.0 mm
19:40 73 °F /  22.8 °C 65.5 °F /  18.6 °C 29.9 in /  1012.8 hPa SW 2 mph /  3.2 km/h 4 mph /  6.4 km/h 77 % 0 in /  0.0 mm
19:44 80.8 °F /  27.1 °C 62.6 °F /  17.0 °C 29.9 in /  1011.7 hPa SSW 4.6 mph /  7.4 km/h 4.6 mph /  7.4 km/h 54 % 0 in /  0.0 mm
19:49 80.8 °F /  27.1 °C 62.6 °F /  17.0 °C 29.9 in /  1011.7 hPa SW 4.6 mph /  7.4 km/h 4.6 mph /  7.4 km/h 54 % 0 in /  0.0 mm
19:50 72.9 °F /  22.7 °C 65.7 °F /  18.7 °C 29.9 in /  1012.8 hPa Calm   2 mph /  3.2 km/h 78 % 0 in /  0.0 mm
19:54 80.4 °F /  26.9 °C 62.8 °F /  17.1 °C 29.9 in /  1011.7 hPa SW 4.6 mph /  7.4 km/h 4.6 mph /  7.4 km/h 55 % 0 in /  0.0 mm
19:59 80.2 °F /  26.8 °C 63.1 °F /  17.3 °C 29.9 in /  1011.7 hPa SW 4.3 mph /  6.9 km/h 4.3 mph /  6.9 km/h 56 % 0 in /  0.0 mm
20:00 72.9 °F /  22.7 °C 66 °F /  18.9 °C 29.9 in /  1012.8 hPa SW 2 mph /  3.2 km/h 2 mph /  3.2 km/h 79 % 0 in /  0.0 mm
20:04 80.1 °F /  26.7 °C 63 °F /  17.2 °C 29.9 in /  1011.7 hPa SSW 4.6 mph /  7.4 km/h 4.6 mph /  7.4 km/h 56 % 0 in /  0.0 mm
20:09 79.7 °F /  26.5 °C 62.6 °F /  17.0 °C 29.9 in /  1011.7 hPa SW 5.8 mph /  9.3 km/h 5.8 mph /  9.3 km/h 56 % 0 in /  0.0 mm
20:10 72.9 °F /  22.7 °C 65.7 °F /  18.7 °C 29.9 in /  1012.8 hPa SW 1 mph /  1.6 km/h 2 mph /  3.2 km/h 78 % 0 in /  0.0 mm
20:14 79.5 °F /  26.4 °C 63 °F /  17.2 °C 29.9 in /  1011.7 hPa West 4.6 mph /  7.4 km/h 4.6 mph /  7.4 km/h 57 % 0 in /  0.0 mm
20:19 79.5 °F /  26.4 °C 63 °F /  17.2 °C 29.9 in /  1011.7 hPa SW 2.4 mph /  3.9 km/h 2.4 mph /  3.9 km/h 57 % 0 in /  0.0 mm
20:20 72.7 °F /  22.6 °C 65.8 °F /  18.8 °C 29.9 in /  1012.8 hPa Calm   2 mph /  3.2 km/h 79 % 0 in /  0.0 mm
20:24 79.5 °F /  26.4 °C 63.3 °F /  17.4 °C 29.9 in /  1011.7 hPa SW 2.3 mph /  3.7 km/h 2.3 mph /  3.7 km/h 58 % 0 in /  0.0 mm
20:29 79.2 °F /  26.2 °C 63.1 °F /  17.3 °C 29.9 in /  1011.7 hPa SSW 2.3 mph /  3.7 km/h 2.3 mph /  3.7 km/h 58 % 0 in /  0.0 mm
20:30 72.5 °F /  22.5 °C 65.7 °F /  18.7 °C 29.9 in /  1011.7 hPa WSW 1 mph /  1.6 km/h 2 mph /  3.2 km/h 79 % 0 in /  0.0 mm
20:34 79.2 °F /  26.2 °C 63.1 °F /  17.3 °C 29.9 in /  1011.7 hPa WSW 1.2 mph /  1.9 km/h   58 % 0 in /  0.0 mm
20:39 79 °F /  26.1 °C 63.3 °F /  17.4 °C 29.9 in /  1011.7 hPa South 2.3 mph /  3.7 km/h   59 % 0 in /  0.0 mm
20:40 72.5 °F /  22.5 °C 65.7 °F /  18.7 °C 29.9 in /  1012.8 hPa WSW 2 mph /  3.2 km/h 2 mph /  3.2 km/h 79 % 0 in /  0.0 mm
20:44 78.8 °F /  26.0 °C 63.3 °F /  17.4 °C 29.9 in /  1011.7 hPa Calm     59 % 0 in /  0.0 mm
20:49 78.6 °F /  25.9 °C 63.1 °F /  17.3 °C 29.9 in /  1011.7 hPa SW 2.3 mph /  3.7 km/h 2.3 mph /  3.7 km/h 59 % 0 in /  0.0 mm
20:50 72.5 °F /  22.5 °C 66 °F /  18.9 °C 29.9 in /  1012.8 hPa West 1 mph /  1.6 km/h 2 mph /  3.2 km/h 80 % 0 in /  0.0 mm
20:54 78.3 °F /  25.7 °C 63.1 °F /  17.3 °C 29.9 in /  1011.7 hPa SW 2.3 mph /  3.7 km/h 2.3 mph /  3.7 km/h 60 % 0 in /  0.0 mm
20:59 78.1 °F /  25.6 °C 63.1 °F /  17.3 °C 29.9 in /  1011.7 hPa WSW 1.4 mph /  2.3 km/h   60 % 0 in /  0.0 mm
21:00 72.5 °F /  22.5 °C 66 °F /  18.9 °C 29.9 in /  1012.8 hPa Calm   1 mph /  1.6 km/h 80 % 0 in /  0.0 mm
21:04 77.9 °F /  25.5 °C 63 °F /  17.2 °C 29.9 in /  1011.7 hPa SW 1.2 mph /  1.9 km/h   60 % 0 in /  0.0 mm
21:09 77.7 °F /  25.4 °C 63.1 °F /  17.3 °C 29.9 in /  1011.7 hPa Calm     61 % 0 in /  0.0 mm
21:10 72.5 °F /  22.5 °C 66.4 °F /  19.1 °C 29.9 in /  1011.7 hPa Calm   1 mph /  1.6 km/h 81 % 0 in /  0.0 mm
21:14 77.2 °F /  25.1 °C 64 °F /  17.8 °C 29.9 in /  1011.7 hPa ESE 3.5 mph /  5.6 km/h 3.5 mph /  5.6 km/h 64 % 0 in /  0.0 mm
21:19 77 °F /  25.0 °C 64.2 °F /  17.9 °C 29.9 in /  1011.7 hPa East 2.3 mph /  3.7 km/h 2.3 mph /  3.7 km/h 65 % 0 in /  0.0 mm
21:20 72.3 °F /  22.4 °C 66.6 °F /  19.2 °C 29.9 in /  1011.7 hPa ENE 1 mph /  1.6 km/h 2 mph /  3.2 km/h 82 % 0 in /  0.0 mm
21:24 76.6 °F /  24.8 °C 64.9 °F /  18.3 °C 29.9 in /  1011.7 hPa ENE 3.5 mph /  5.6 km/h 3.5 mph /  5.6 km/h 67 % 0 in /  0.0 mm
21:29 76.3 °F /  24.6 °C 64.9 °F /  18.3 °C 29.9 in /  1011.7 hPa ENE 4.6 mph /  7.4 km/h 4.6 mph /  7.4 km/h 68 % 0 in /  0.0 mm
21:30 72 °F /  22.2 °C 66.2 °F /  19.0 °C 29.9 in /  1011.7 hPa Calm   2 mph /  3.2 km/h 82 % 0 in /  0.0 mm
21:34 76.1 °F /  24.5 °C 64.8 °F /  18.2 °C 29.9 in /  1011.7 hPa ENE 4.6 mph /  7.4 km/h 4.6 mph /  7.4 km/h 68 % 0 in /  0.0 mm
21:39 75.7 °F /  24.3 °C 64.8 °F /  18.2 °C 29.9 in /  1011.7 hPa East 4.6 mph /  7.4 km/h 4.6 mph /  7.4 km/h 69 % 0 in /  0.0 mm
21:40 71.8 °F /  22.1 °C 66 °F /  18.9 °C 29.9 in /  1011.7 hPa Calm   2 mph /  3.2 km/h 82 % 0 in /  0.0 mm
21:44 75.6 °F /  24.2 °C 65.1 °F /  18.4 °C 29.9 in /  1011.7 hPa East 4.6 mph /  7.4 km/h 4.6 mph /  7.4 km/h 70 % 0 in /  0.0 mm
21:49 75.4 °F /  24.1 °C 65.7 °F /  18.7 °C 29.9 in /  1011.7 hPa ENE 5.8 mph /  9.3 km/h 5.8 mph /  9.3 km/h 72 % 0 in /  0.0 mm
21:50 71.2 °F /  21.8 °C 65.5 °F /  18.6 °C 29.9 in /  1011.7 hPa SW 2 mph /  3.2 km/h 3 mph /  4.8 km/h 82 % 0 in /  0.0 mm
21:54 75.2 °F /  24.0 °C 65.7 °F /  18.7 °C 29.9 in /  1011.7 hPa ENE 8.1 mph /  13.0 km/h 8.1 mph /  13.0 km/h 72 % 0 in /  0.0 mm
21:56 75.2 °F /  24.0 °C 65.1 °F /  18.4 °C 29.9 in /  1011.7 hPa ESE 6.9 mph /  11.1 km/h 6.9 mph /  11.1 km/h 71 % 0 in /  0.0 mm
22:00 71.2 °F /  21.8 °C 65.5 °F /  18.6 °C 29.9 in /  1011.7 hPa WSW 2 mph /  3.2 km/h 2 mph /  3.2 km/h 82 % 0 in /  0.0 mm
22:01 75 °F /  23.9 °C 66.2 °F /  19.0 °C 29.9 in /  1011.7 hPa ENE 5.8 mph /  9.3 km/h 5.8 mph /  9.3 km/h 74 % 0 in /  0.0 mm
22:06 74.8 °F /  23.8 °C 66 °F /  18.9 °C 29.9 in /  1011.7 hPa ESE 3.5 mph /  5.6 km/h 3.5 mph /  5.6 km/h 74 % 0 in /  0.0 mm
22:10 71.2 °F /  21.8 °C 65.8 °F /  18.8 °C 29.9 in /  1012.8 hPa WSW 1 mph /  1.6 km/h 2 mph /  3.2 km/h 83 % 0 in /  0.0 mm
22:11 74.8 °F /  23.8 °C 66 °F /  18.9 °C 29.9 in /  1011.7 hPa East 2.4 mph /  3.9 km/h 2.4 mph /  3.9 km/h 74 % 0 in /  0.0 mm
22:16 74.8 °F /  23.8 °C 65.7 °F /  18.7 °C 29.9 in /  1011.7 hPa Calm     73 % 0 in /  0.0 mm
22:20 71.2 °F /  21.8 °C 65.8 °F /  18.8 °C 29.9 in /  1012.8 hPa WSW 1 mph /  1.6 km/h 2 mph /  3.2 km/h 83 % 0 in /  0.0 mm
22:21 74.8 °F /  23.8 °C 66 °F /  18.9 °C 29.9 in /  1011.7 hPa South 2.3 mph /  3.7 km/h   74 % 0 in /  0.0 mm
22:26 74.8 °F /  23.8 °C 65.7 °F /  18.7 °C 29.9 in /  1011.7 hPa WSW 1.2 mph /  1.9 km/h 1.4 mph /  2.3 km/h 73 % 0 in /  0.0 mm
22:30 71.2 °F /  21.8 °C 65.8 °F /  18.8 °C 29.9 in /  1012.8 hPa WSW 2 mph /  3.2 km/h 3 mph /  4.8 km/h 83 % 0 in /  0.0 mm
22:31 74.8 °F /  23.8 °C 65.7 °F /  18.7 °C 29.9 in /  1012.8 hPa SW 2.3 mph /  3.7 km/h 2.3 mph /  3.7 km/h 73 % 0 in /  0.0 mm
22:36 74.7 °F /  23.7 °C 65.5 °F /  18.6 °C 29.9 in /  1012.8 hPa WSW 2.3 mph /  3.7 km/h 2.3 mph /  3.7 km/h 73 % 0 in /  0.0 mm
22:40 71.4 °F /  21.9 °C 66.4 °F /  19.1 °C 29.9 in /  1011.7 hPa Calm   2 mph /  3.2 km/h 84 % 0 in /  0.0 mm
22:41 74.7 °F /  23.7 °C 65.8 °F /  18.8 °C 29.9 in /  1012.8 hPa Calm     74 % 0 in /  0.0 mm
22:46 74.8 °F /  23.8 °C 66 °F /  18.9 °C 29.9 in /  1012.8 hPa NNE 1.2 mph /  1.9 km/h   74 % 0 in /  0.0 mm
22:50 71.2 °F /  21.8 °C 66.6 °F /  19.2 °C 29.9 in /  1011.7 hPa ESE 2 mph /  3.2 km/h 2 mph /  3.2 km/h 85 % 0 in /  0.0 mm
22:51 74.8 °F /  23.8 °C 66 °F /  18.9 °C 29.9 in /  1012.8 hPa West 1.2 mph /  1.9 km/h   74 % 0 in /  0.0 mm
22:56 74.8 °F /  23.8 °C 66 °F /  18.9 °C 29.9 in /  1012.8 hPa West 2.3 mph /  3.7 km/h 2.3 mph /  3.7 km/h 74 % 0 in /  0.0 mm
23:00 70.7 °F /  21.5 °C 65.7 °F /  18.7 °C 29.9 in /  1011.7 hPa South 2 mph /  3.2 km/h 3 mph /  4.8 km/h 84 % 0 in /  0.0 mm
23:01 74.8 °F /  23.8 °C 66 °F /  18.9 °C 29.9 in /  1013.8 hPa Calm     74 % 0 in /  0.0 mm
23:06 74.8 °F /  23.8 °C 66 °F /  18.9 °C 29.9 in /  1013.8 hPa NNW 2.3 mph /  3.7 km/h 2.3 mph /  3.7 km/h 74 % 0 in /  0.0 mm
23:10 70.3 °F /  21.3 °C 65.7 °F /  18.7 °C 29.8 in /  1010.7 hPa SW 2 mph /  3.2 km/h 2 mph /  3.2 km/h 85 % 0 in /  0.0 mm
23:11 74.8 °F /  23.8 °C 66 °F /  18.9 °C 29.9 in /  1013.8 hPa WNW 1.2 mph /  1.9 km/h   74 % 0 in /  0.0 mm
23:16 74.7 °F /  23.7 °C 65.8 °F /  18.8 °C 29.9 in /  1012.8 hPa East 1.2 mph /  1.9 km/h 1.2 mph /  1.9 km/h 74 % 0 in /  0.0 mm
23:20 70.2 °F /  21.2 °C 65.5 °F /  18.6 °C 29.8 in /  1010.7 hPa SW 1 mph /  1.6 km/h 2 mph /  3.2 km/h 85 % 0 in /  0.0 mm
23:21 74.7 °F /  23.7 °C 65.8 °F /  18.8 °C 29.9 in /  1012.8 hPa ENE 1.6 mph /  2.6 km/h   74 % 0 in /  0.0 mm
23:26 74.7 °F /  23.7 °C 65.8 °F /  18.8 °C 29.9 in /  1012.8 hPa East 5.8 mph /  9.3 km/h 5.8 mph /  9.3 km/h 74 % 0 in /  0.0 mm
23:30 70.2 °F /  21.2 °C 65.5 °F /  18.6 °C 29.9 in /  1011.7 hPa SW 1 mph /  1.6 km/h 2 mph /  3.2 km/h 85 % 0 in /  0.0 mm
23:31 74.5 °F /  23.6 °C 65.7 °F /  18.7 °C 29.9 in /  1012.8 hPa WSW 2.3 mph /  3.7 km/h 2.3 mph /  3.7 km/h 74 % 0 in /  0.0 mm
23:36 74.5 °F /  23.6 °C 65.7 °F /  18.7 °C 29.9 in /  1012.8 hPa ENE 1.2 mph /  1.9 km/h   74 % 0 in /  0.0 mm
23:40 70.2 °F /  21.2 °C 65.8 °F /  18.8 °C 29.8 in /  1010.7 hPa Calm   2 mph /  3.2 km/h 86 % 0 in /  0.0 mm
23:41 74.5 °F /  23.6 °C 66 °F /  18.9 °C 29.9 in /  1012.8 hPa NE 2.4 mph /  3.9 km/h 2.4 mph /  3.9 km/h 75 % 0 in /  0.0 mm
23:46 74.3 °F /  23.5 °C 65.8 °F /  18.8 °C 29.9 in /  1012.8 hPa NE 1.2 mph /  1.9 km/h 1.2 mph /  1.9 km/h 75 % 0 in /  0.0 mm
23:50 70.3 °F /  21.3 °C 65.7 °F /  18.7 °C 29.8 in /  1010.7 hPa West 2 mph /  3.2 km/h 3 mph /  4.8 km/h 85 % 0 in /  0.0 mm
23:51 73.9 °F /  23.3 °C 65.8 °F /  18.8 °C 29.9 in /  1012.8 hPa ENE 2.3 mph /  3.7 km/h 2.3 mph /  3.7 km/h 76 % 0 in /  0.0 mm
23:56 73.9 °F /  23.3 °C 65.8 °F /  18.8 °C 29.9 in /  1012.8 hPa NE 1.2 mph /  1.9 km/h   76 % 0 in /  0.0 mm
Meteo Sesrovires
Elogis d' Weather Underground - 3.5 mb

Guio original per  Jim McMurry - jmcmurry@mwt.net Adaptat per a la plantilla per  Wim van der Kuil - Leuven-Template.eu

Trobareu la nostra informacio del temps tambe a:

Weather Underground

AWEKAS